sensor_id;sensor_type;location;lat;lon;timestamp;pressure;altitude;pressure_sealevel;temperature;humidity
38616;BME280;24370;51.986;4.666;2023-04-29T00:01:55;101632.31;;;17.23;54.03
38616;BME280;24370;51.986;4.666;2023-04-29T00:04:23;101620.38;;;18.39;51.38
38616;BME280;24370;51.986;4.666;2023-04-29T00:06:49;101640.25;;;17.58;53.24
38616;BME280;24370;51.986;4.666;2023-04-29T00:09:14;101631.84;;;16.68;57.47
38616;BME280;24370;51.986;4.666;2023-04-29T00:11:40;101644.00;;;16.36;57.09
38616;BME280;24370;51.986;4.666;2023-04-29T00:14:05;101637.81;;;16.76;55.59
38616;BME280;24370;51.986;4.666;2023-04-29T00:16:31;101634.16;;;16.43;57.42
38616;BME280;24370;51.986;4.666;2023-04-29T00:18:56;101635.44;;;17.39;54.62
38616;BME280;24370;51.986;4.666;2023-04-29T00:21:21;101638.53;;;17.21;55.08
38616;BME280;24370;51.986;4.666;2023-04-29T00:23:47;101637.91;;;17.45;54.42
38616;BME280;24370;51.986;4.666;2023-04-29T00:26:12;101639.94;;;16.18;57.70
38616;BME280;24370;51.986;4.666;2023-04-29T00:28:38;101641.53;;;15.33;60.58
38616;BME280;24370;51.986;4.666;2023-04-29T00:31:03;101644.09;;;15.86;58.66
38616;BME280;24370;51.986;4.666;2023-04-29T00:33:29;101649.69;;;15.68;58.38
38616;BME280;24370;51.986;4.666;2023-04-29T00:35:55;101641.03;;;16.50;56.16
38616;BME280;24370;51.986;4.666;2023-04-29T00:38:20;101644.28;;;16.21;58.37
38616;BME280;24370;51.986;4.666;2023-04-29T00:40:46;101647.06;;;16.57;56.31
38616;BME280;24370;51.986;4.666;2023-04-29T00:43:11;101645.31;;;16.56;56.37
38616;BME280;24370;51.986;4.666;2023-04-29T00:45:38;101655.28;;;15.98;56.98
38616;BME280;24370;51.986;4.666;2023-04-29T00:48:04;101658.09;;;17.13;53.25
38616;BME280;24370;51.986;4.666;2023-04-29T00:50:29;101650.69;;;16.92;54.13
38616;BME280;24370;51.986;4.666;2023-04-29T00:52:55;101659.69;;;15.49;59.55
38616;BME280;24370;51.986;4.666;2023-04-29T00:55:21;101656.47;;;16.28;56.74
38616;BME280;24370;51.986;4.666;2023-04-29T00:57:48;101651.25;;;17.06;53.43
38616;BME280;24370;51.986;4.666;2023-04-29T01:00:17;101657.78;;;16.05;57.14
38616;BME280;24370;51.986;4.666;2023-04-29T01:02:43;101662.28;;;16.00;58.35
38616;BME280;24370;51.986;4.666;2023-04-29T01:05:10;101658.06;;;16.35;59.06
38616;BME280;24370;51.986;4.666;2023-04-29T01:07:44;101670.38;;;15.89;57.26
38616;BME280;24370;51.986;4.666;2023-04-29T01:10:21;101658.34;;;15.23;58.55
38616;BME280;24370;51.986;4.666;2023-04-29T01:13:13;101668.56;;;16.38;58.55
38616;BME280;24370;51.986;4.666;2023-04-29T01:18:31;101667.91;;;16.69;56.25
38616;BME280;24370;51.986;4.666;2023-04-29T01:20:57;101672.66;;;17.30;55.15
38616;BME280;24370;51.986;4.666;2023-04-29T01:23:29;101663.78;;;16.14;57.70
38616;BME280;24370;51.986;4.666;2023-04-29T01:25:56;101675.41;;;17.27;54.68
38616;BME280;24370;51.986;4.666;2023-04-29T01:28:34;101677.66;;;17.06;53.63
38616;BME280;24370;51.986;4.666;2023-04-29T01:34:13;101687.34;;;16.65;54.51
38616;BME280;24370;51.986;4.666;2023-04-29T01:37:26;101687.00;;;17.20;54.71
38616;BME280;24370;51.986;4.666;2023-04-29T01:40:25;101693.97;;;17.22;55.20
38616;BME280;24370;51.986;4.666;2023-04-29T01:43:00;101688.06;;;16.73;56.46
38616;BME280;24370;51.986;4.666;2023-04-29T01:45:26;101693.00;;;16.89;56.15
38616;BME280;24370;51.986;4.666;2023-04-29T01:47:53;101689.16;;;17.04;54.70
38616;BME280;24370;51.986;4.666;2023-04-29T01:50:20;101695.91;;;17.52;52.99
38616;BME280;24370;51.986;4.666;2023-04-29T01:52:45;101700.66;;;17.37;52.76
38616;BME280;24370;51.986;4.666;2023-04-29T01:55:11;101688.75;;;18.23;51.09
38616;BME280;24370;51.986;4.666;2023-04-29T01:57:36;101697.47;;;17.24;53.79
38616;BME280;24370;51.986;4.666;2023-04-29T02:00:01;101689.53;;;16.85;54.87
38616;BME280;24370;51.986;4.666;2023-04-29T02:02:27;101693.53;;;17.03;54.01
38616;BME280;24370;51.986;4.666;2023-04-29T02:04:53;101691.81;;;17.40;53.15
38616;BME280;24370;51.986;4.666;2023-04-29T02:07:18;101694.47;;;17.38;54.01
38616;BME280;24370;51.986;4.666;2023-04-29T02:09:44;101706.66;;;16.67;54.46
38616;BME280;24370;51.986;4.666;2023-04-29T02:12:09;101702.75;;;16.43;55.48
38616;BME280;24370;51.986;4.666;2023-04-29T02:14:34;101711.13;;;17.42;53.10
38616;BME280;24370;51.986;4.666;2023-04-29T02:17:00;101705.88;;;17.76;52.19
38616;BME280;24370;51.986;4.666;2023-04-29T02:19:25;101711.19;;;17.73;50.92
38616;BME280;24370;51.986;4.666;2023-04-29T02:21:51;101719.75;;;17.85;51.88
38616;BME280;24370;51.986;4.666;2023-04-29T02:24:16;101720.31;;;17.25;52.61
38616;BME280;24370;51.986;4.666;2023-04-29T02:26:41;101726.09;;;17.77;51.30
38616;BME280;24370;51.986;4.666;2023-04-29T02:29:07;101726.06;;;17.43;54.42
38616;BME280;24370;51.986;4.666;2023-04-29T02:31:32;101725.97;;;17.10;54.50
38616;BME280;24370;51.986;4.666;2023-04-29T02:33:57;101723.88;;;16.84;53.83
38616;BME280;24370;51.986;4.666;2023-04-29T02:36:24;101731.44;;;16.60;55.20
38616;BME280;24370;51.986;4.666;2023-04-29T02:38:49;101728.44;;;17.18;53.20
38616;BME280;24370;51.986;4.666;2023-04-29T02:41:16;101733.28;;;17.36;52.80
38616;BME280;24370;51.986;4.666;2023-04-29T02:43:42;101741.84;;;17.08;52.83
38616;BME280;24370;51.986;4.666;2023-04-29T02:46:08;101748.19;;;17.01;52.87
38616;BME280;24370;51.986;4.666;2023-04-29T02:48:34;101752.53;;;17.77;51.18
38616;BME280;24370;51.986;4.666;2023-04-29T02:50:59;101752.69;;;17.35;52.54
38616;BME280;24370;51.986;4.666;2023-04-29T02:53:25;101753.75;;;16.89;53.91
38616;BME280;24370;51.986;4.666;2023-04-29T02:55:50;101756.91;;;18.13;49.92
38616;BME280;24370;51.986;4.666;2023-04-29T02:58:15;101759.97;;;18.30;49.61
38616;BME280;24370;51.986;4.666;2023-04-29T03:00:40;101761.44;;;17.73;50.49
38616;BME280;24370;51.986;4.666;2023-04-29T03:03:06;101770.16;;;17.02;52.16
38616;BME280;24370;51.986;4.666;2023-04-29T03:05:31;101765.34;;;17.21;52.38
38616;BME280;24370;51.986;4.666;2023-04-29T03:07:57;101770.59;;;17.96;50.74
38616;BME280;24370;51.986;4.666;2023-04-29T03:10:22;101770.94;;;17.82;50.20
38616;BME280;24370;51.986;4.666;2023-04-29T03:12:47;101772.69;;;17.81;50.08
38616;BME280;24370;51.986;4.666;2023-04-29T03:15:13;101776.75;;;17.96;50.34
38616;BME280;24370;51.986;4.666;2023-04-29T03:17:39;101781.59;;;17.77;50.49
38616;BME280;24370;51.986;4.666;2023-04-29T03:20:05;101771.84;;;18.16;49.59
38616;BME280;24370;51.986;4.666;2023-04-29T03:22:32;101772.78;;;17.03;52.19
38616;BME280;24370;51.986;4.666;2023-04-29T03:24:57;101777.00;;;18.22;49.38
38616;BME280;24370;51.986;4.666;2023-04-29T03:27:22;101776.25;;;17.80;50.29
38616;BME280;24370;51.986;4.666;2023-04-29T03:29:48;101772.50;;;17.55;51.11
38616;BME280;24370;51.986;4.666;2023-04-29T03:32:13;101780.19;;;17.64;49.96
38616;BME280;24370;51.986;4.666;2023-04-29T03:34:38;101773.69;;;18.13;49.98
38616;BME280;24370;51.986;4.666;2023-04-29T03:37:04;101783.75;;;17.63;50.27
38616;BME280;24370;51.986;4.666;2023-04-29T03:39:30;101780.63;;;18.18;50.07
38616;BME280;24370;51.986;4.666;2023-04-29T03:41:57;101779.97;;;18.42;47.91
38616;BME280;24370;51.986;4.666;2023-04-29T03:44:23;101781.00;;;17.30;49.80
38616;BME280;24370;51.986;4.666;2023-04-29T03:46:49;101784.06;;;18.53;47.55
38616;BME280;24370;51.986;4.666;2023-04-29T03:49:14;101780.59;;;18.80;47.20
38616;BME280;24370;51.986;4.666;2023-04-29T03:51:40;101784.56;;;18.36;48.75
38616;BME280;24370;51.986;4.666;2023-04-29T03:54:06;101780.22;;;18.96;46.83
38616;BME280;24370;51.986;4.666;2023-04-29T03:56:31;101782.63;;;18.72;47.10
38616;BME280;24370;51.986;4.666;2023-04-29T03:58:57;101792.34;;;18.40;47.57
38616;BME280;24370;51.986;4.666;2023-04-29T04:01:22;101793.03;;;18.78;47.29
38616;BME280;24370;51.986;4.666;2023-04-29T04:03:47;101794.94;;;18.42;47.69
38616;BME280;24370;51.986;4.666;2023-04-29T04:06:13;101796.94;;;18.65;47.02
38616;BME280;24370;51.986;4.666;2023-04-29T04:08:38;101794.22;;;17.66;49.95
38616;BME280;24370;51.986;4.666;2023-04-29T04:11:05;101793.00;;;18.16;47.39
38616;BME280;24370;51.986;4.666;2023-04-29T04:13:31;101797.25;;;17.87;48.51
38616;BME280;24370;51.986;4.666;2023-04-29T04:15:57;101801.91;;;18.46;48.19
38616;BME280;24370;51.986;4.666;2023-04-29T04:18:22;101802.19;;;19.28;46.22
38616;BME280;24370;51.986;4.666;2023-04-29T04:20:48;101802.81;;;18.76;46.81
38616;BME280;24370;51.986;4.666;2023-04-29T04:23:13;101808.41;;;18.01;48.22
38616;BME280;24370;51.986;4.666;2023-04-29T04:25:46;101815.97;;;17.41;49.96
38616;BME280;24370;51.986;4.666;2023-04-29T04:28:11;101818.13;;;17.99;49.35
38616;BME280;24370;51.986;4.666;2023-04-29T04:30:36;101812.41;;;17.42;50.07
38616;BME280;24370;51.986;4.666;2023-04-29T04:33:02;101829.94;;;18.85;47.00
38616;BME280;24370;51.986;4.666;2023-04-29T04:35:28;101826.59;;;18.13;48.46
38616;BME280;24370;51.986;4.666;2023-04-29T04:37:53;101832.88;;;18.09;49.41
38616;BME280;24370;51.986;4.666;2023-04-29T04:40:19;101828.84;;;18.29;48.00
38616;BME280;24370;51.986;4.666;2023-04-29T04:42:45;101831.38;;;18.32;48.61
38616;BME280;24370;51.986;4.666;2023-04-29T04:45:10;101843.84;;;17.55;49.96
38616;BME280;24370;51.986;4.666;2023-04-29T04:47:36;101839.88;;;17.74;49.39
38616;BME280;24370;51.986;4.666;2023-04-29T04:50:02;101845.31;;;17.67;51.07
38616;BME280;24370;51.986;4.666;2023-04-29T04:52:28;101855.34;;;17.93;49.73
38616;BME280;24370;51.986;4.666;2023-04-29T04:54:54;101855.03;;;18.05;49.25
38616;BME280;24370;51.986;4.666;2023-04-29T04:57:19;101861.72;;;18.19;49.77
38616;BME280;24370;51.986;4.666;2023-04-29T04:59:44;101862.50;;;18.57;49.41
38616;BME280;24370;51.986;4.666;2023-04-29T05:02:10;101864.16;;;18.61;48.79
38616;BME280;24370;51.986;4.666;2023-04-29T05:04:35;101868.19;;;19.07;47.90
38616;BME280;24370;51.986;4.666;2023-04-29T05:07:01;101869.69;;;17.01;53.17
38616;BME280;24370;51.986;4.666;2023-04-29T05:09:26;101875.16;;;18.45;49.69
38616;BME280;24370;51.986;4.666;2023-04-29T05:11:52;101879.56;;;18.45;49.89
38616;BME280;24370;51.986;4.666;2023-04-29T05:14:18;101881.84;;;18.26;49.47
38616;BME280;24370;51.986;4.666;2023-04-29T05:16:43;101887.72;;;18.37;49.97
38616;BME280;24370;51.986;4.666;2023-04-29T05:19:10;101891.09;;;16.86;53.00
38616;BME280;24370;51.986;4.666;2023-04-29T05:21:36;101888.84;;;17.91;51.63
38616;BME280;24370;51.986;4.666;2023-04-29T05:24:01;101892.47;;;18.59;49.19
38616;BME280;24370;51.986;4.666;2023-04-29T05:26:26;101898.94;;;17.34;53.52
38616;BME280;24370;51.986;4.666;2023-04-29T05:28:52;101906.03;;;17.71;53.09
38616;BME280;24370;51.986;4.666;2023-04-29T05:31:17;101907.13;;;17.22;54.56
38616;BME280;24370;51.986;4.666;2023-04-29T05:33:42;101902.19;;;17.45;54.07
38616;BME280;24370;51.986;4.666;2023-04-29T05:36:08;101899.78;;;18.13;51.49
38616;BME280;24370;51.986;4.666;2023-04-29T05:38:33;101894.53;;;19.42;47.87
38616;BME280;24370;51.986;4.666;2023-04-29T05:40:58;101911.72;;;19.28;48.24
38616;BME280;24370;51.986;4.666;2023-04-29T05:43:24;101910.22;;;18.19;50.45
38616;BME280;24370;51.986;4.666;2023-04-29T05:45:49;101903.97;;;19.50;47.77
38616;BME280;24370;51.986;4.666;2023-04-29T05:48:15;101908.56;;;19.15;48.06
38616;BME280;24370;51.986;4.666;2023-04-29T05:50:40;101920.16;;;18.78;49.51
38616;BME280;24370;51.986;4.666;2023-04-29T05:53:06;101917.63;;;18.74;49.76
38616;BME280;24370;51.986;4.666;2023-04-29T05:55:31;101927.19;;;18.10;50.09
38616;BME280;24370;51.986;4.666;2023-04-29T05:57:57;101932.41;;;17.74;51.14
38616;BME280;24370;51.986;4.666;2023-04-29T06:00:22;101928.00;;;18.48;49.50
38616;BME280;24370;51.986;4.666;2023-04-29T06:02:48;101935.28;;;18.04;49.87
38616;BME280;24370;51.986;4.666;2023-04-29T06:05:13;101935.66;;;18.94;47.58
38616;BME280;24370;51.986;4.666;2023-04-29T06:07:39;101943.13;;;19.42;47.11
38616;BME280;24370;51.986;4.666;2023-04-29T06:10:06;101941.19;;;19.77;46.05
38616;BME280;24370;51.986;4.666;2023-04-29T06:12:31;101940.56;;;19.69;46.34
38616;BME280;24370;51.986;4.666;2023-04-29T06:14:56;101940.25;;;19.80;45.99
38616;BME280;24370;51.986;4.666;2023-04-29T06:17:22;101954.47;;;19.77;46.56
38616;BME280;24370;51.986;4.666;2023-04-29T06:19:47;101953.59;;;20.59;44.38
38616;BME280;24370;51.986;4.666;2023-04-29T06:22:13;101959.16;;;19.06;48.07
38616;BME280;24370;51.986;4.666;2023-04-29T06:24:38;101961.38;;;19.22;47.97
38616;BME280;24370;51.986;4.666;2023-04-29T06:27:03;101969.66;;;18.76;47.39
38616;BME280;24370;51.986;4.666;2023-04-29T06:29:29;101972.50;;;19.66;45.97
38616;BME280;24370;51.986;4.666;2023-04-29T06:31:54;101970.75;;;19.02;47.62
38616;BME280;24370;51.986;4.666;2023-04-29T06:34:20;101977.22;;;19.25;45.45
38616;BME280;24370;51.986;4.666;2023-04-29T06:36:46;101971.09;;;19.84;45.85
38616;BME280;24370;51.986;4.666;2023-04-29T06:39:11;101974.84;;;20.05;45.01
38616;BME280;24370;51.986;4.666;2023-04-29T06:41:36;101977.88;;;19.93;45.04
38616;BME280;24370;51.986;4.666;2023-04-29T06:44:02;101990.50;;;19.85;44.87
38616;BME280;24370;51.986;4.666;2023-04-29T06:46:27;101983.53;;;20.64;43.74
38616;BME280;24370;51.986;4.666;2023-04-29T06:48:53;101994.75;;;20.74;43.73
38616;BME280;24370;51.986;4.666;2023-04-29T06:51:19;101994.97;;;21.18;42.31
38616;BME280;24370;51.986;4.666;2023-04-29T06:53:44;101997.81;;;20.06;44.71
38616;BME280;24370;51.986;4.666;2023-04-29T06:56:11;102005.28;;;21.27;42.01
38616;BME280;24370;51.986;4.666;2023-04-29T06:58:36;102003.53;;;20.76;41.89
38616;BME280;24370;51.986;4.666;2023-04-29T07:01:06;101998.44;;;20.70;42.17
38616;BME280;24370;51.986;4.666;2023-04-29T07:03:32;102018.22;;;19.74;43.24
38616;BME280;24370;51.986;4.666;2023-04-29T07:05:58;102025.00;;;19.85;42.91
38616;BME280;24370;51.986;4.666;2023-04-29T07:08:23;102025.31;;;19.09;44.33
38616;BME280;24370;51.986;4.666;2023-04-29T07:10:57;102021.88;;;20.83;42.44
38616;BME280;24370;51.986;4.666;2023-04-29T07:13:23;102033.19;;;20.62;41.49
38616;BME280;24370;51.986;4.666;2023-04-29T07:15:49;102046.22;;;19.85;42.58
38616;BME280;24370;51.986;4.666;2023-04-29T07:18:15;102048.19;;;19.13;42.65
38616;BME280;24370;51.986;4.666;2023-04-29T07:20:40;102043.03;;;21.37;39.13
38616;BME280;24370;51.986;4.666;2023-04-29T07:23:06;102037.81;;;21.34;38.00
38616;BME280;24370;51.986;4.666;2023-04-29T07:25:31;102049.28;;;22.74;36.83
38616;BME280;24370;51.986;4.666;2023-04-29T07:27:58;102035.66;;;23.02;36.30
38616;BME280;24370;51.986;4.666;2023-04-29T07:30:23;102034.22;;;24.68;33.77
38616;BME280;24370;51.986;4.666;2023-04-29T07:32:49;102049.53;;;21.54;36.80
38616;BME280;24370;51.986;4.666;2023-04-29T07:35:14;102047.69;;;24.47;33.30
38616;BME280;24370;51.986;4.666;2023-04-29T07:37:39;102050.84;;;25.93;32.68
38616;BME280;24370;51.986;4.666;2023-04-29T07:40:06;102046.47;;;25.42;31.53
38616;BME280;24370;51.986;4.666;2023-04-29T07:42:31;102055.16;;;26.43;30.14
38616;BME280;24370;51.986;4.666;2023-04-29T07:44:57;102050.13;;;25.73;29.81
38616;BME280;24370;51.986;4.666;2023-04-29T07:47:22;102056.44;;;23.55;32.30
38616;BME280;24370;51.986;4.666;2023-04-29T07:49:48;102056.16;;;24.38;32.08
38616;BME280;24370;51.986;4.666;2023-04-29T07:52:13;102065.94;;;24.20;32.24
38616;BME280;24370;51.986;4.666;2023-04-29T07:54:38;102060.16;;;24.83;30.56
38616;BME280;24370;51.986;4.666;2023-04-29T07:57:04;102053.25;;;25.14;29.78
38616;BME280;24370;51.986;4.666;2023-04-29T07:59:30;102057.75;;;24.79;30.33
38616;BME280;24370;51.986;4.666;2023-04-29T08:01:56;102061.72;;;25.40;30.92
38616;BME280;24370;51.986;4.666;2023-04-29T08:04:21;102057.59;;;26.00;29.14
38616;BME280;24370;51.986;4.666;2023-04-29T08:06:47;102058.06;;;25.59;28.92
38616;BME280;24370;51.986;4.666;2023-04-29T08:09:13;102055.59;;;27.26;27.92
38616;BME280;24370;51.986;4.666;2023-04-29T08:11:38;102064.50;;;26.20;28.92
38616;BME280;24370;51.986;4.666;2023-04-29T08:14:04;102058.25;;;25.20;29.93
38616;BME280;24370;51.986;4.666;2023-04-29T08:16:30;102066.44;;;24.09;30.71
38616;BME280;24370;51.986;4.666;2023-04-29T08:18:56;102063.47;;;26.22;28.35
38616;BME280;24370;51.986;4.666;2023-04-29T08:21:21;102055.31;;;26.56;28.13
38616;BME280;24370;51.986;4.666;2023-04-29T08:23:47;102062.19;;;26.30;28.50
38616;BME280;24370;51.986;4.666;2023-04-29T08:26:12;102073.69;;;25.33;29.73
38616;BME280;24370;51.986;4.666;2023-04-29T08:28:38;102072.78;;;25.50;30.05
38616;BME280;24370;51.986;4.666;2023-04-29T08:31:04;102073.28;;;27.00;27.68
38616;BME280;24370;51.986;4.666;2023-04-29T08:33:35;102081.88;;;25.12;28.68
38616;BME280;24370;51.986;4.666;2023-04-29T08:36:01;102076.19;;;26.03;28.28
38616;BME280;24370;51.986;4.666;2023-04-29T08:38:30;102095.31;;;23.61;31.07
38616;BME280;24370;51.986;4.666;2023-04-29T08:40:56;102085.97;;;23.32;31.57
38616;BME280;24370;51.986;4.666;2023-04-29T08:43:22;102096.97;;;23.02;32.27
38616;BME280;24370;51.986;4.666;2023-04-29T08:45:48;102089.69;;;23.28;31.83
38616;BME280;24370;51.986;4.666;2023-04-29T08:48:15;102089.66;;;24.82;30.67
38616;BME280;24370;51.986;4.666;2023-04-29T08:50:41;102098.97;;;25.61;29.44
38616;BME280;24370;51.986;4.666;2023-04-29T08:53:11;102091.88;;;25.44;29.31
38616;BME280;24370;51.986;4.666;2023-04-29T08:55:42;102097.75;;;25.50;28.78
38616;BME280;24370;51.986;4.666;2023-04-29T08:58:08;102097.41;;;25.56;28.58
38616;BME280;24370;51.986;4.666;2023-04-29T09:00:34;102099.03;;;25.43;28.76
38616;BME280;24370;51.986;4.666;2023-04-29T09:03:03;102110.34;;;23.23;31.74
38616;BME280;24370;51.986;4.666;2023-04-29T09:05:35;102113.34;;;22.26;33.66
38616;BME280;24370;51.986;4.666;2023-04-29T09:08:02;102101.09;;;25.38;30.10
38616;BME280;24370;51.986;4.666;2023-04-29T09:10:29;102109.91;;;22.91;31.92
38616;BME280;24370;51.986;4.666;2023-04-29T09:12:55;102100.25;;;24.66;29.76
38616;BME280;24370;51.986;4.666;2023-04-29T09:15:22;102102.44;;;25.63;29.57
38616;BME280;24370;51.986;4.666;2023-04-29T09:17:48;102098.22;;;26.24;28.10
38616;BME280;24370;51.986;4.666;2023-04-29T09:20:34;102099.72;;;27.06;26.77
38616;BME280;24370;51.986;4.666;2023-04-29T09:23:01;102102.38;;;26.30;27.63
38616;BME280;24370;51.986;4.666;2023-04-29T09:25:28;102101.88;;;25.89;28.89
38616;BME280;24370;51.986;4.666;2023-04-29T09:27:54;102106.31;;;26.86;27.47
38616;BME280;24370;51.986;4.666;2023-04-29T09:30:20;102109.88;;;27.75;26.25
38616;BME280;24370;51.986;4.666;2023-04-29T09:33:04;102111.75;;;25.03;28.96
38616;BME280;24370;51.986;4.666;2023-04-29T09:35:30;102108.84;;;27.04;27.34
38616;BME280;24370;51.986;4.666;2023-04-29T09:38:13;102120.34;;;25.78;27.99
38616;BME280;24370;51.986;4.666;2023-04-29T09:40:40;102119.38;;;25.46;28.55
38616;BME280;24370;51.986;4.666;2023-04-29T09:43:14;102127.81;;;24.85;29.39
38616;BME280;24370;51.986;4.666;2023-04-29T09:45:41;102128.34;;;24.75;30.20
38616;BME280;24370;51.986;4.666;2023-04-29T09:48:08;102123.63;;;26.33;27.55
38616;BME280;24370;51.986;4.666;2023-04-29T09:50:35;102126.25;;;25.16;28.44
38616;BME280;24370;51.986;4.666;2023-04-29T09:53:05;102121.50;;;25.56;28.18
38616;BME280;24370;51.986;4.666;2023-04-29T09:58:32;102120.94;;;27.11;28.05
38616;BME280;24370;51.986;4.666;2023-04-29T10:01:05;102116.00;;;26.73;26.61
38616;BME280;24370;51.986;4.666;2023-04-29T10:03:33;102133.56;;;27.09;25.29
38616;BME280;24370;51.986;4.666;2023-04-29T10:05:59;102127.16;;;27.85;24.96
38616;BME280;24370;51.986;4.666;2023-04-29T10:08:26;102120.94;;;27.11;25.46
38616;BME280;24370;51.986;4.666;2023-04-29T10:10:52;102126.97;;;27.59;25.62
38616;BME280;24370;51.986;4.666;2023-04-29T10:13:24;102130.25;;;28.77;25.08
38616;BME280;24370;51.986;4.666;2023-04-29T10:18:29;102140.03;;;26.90;25.56
38616;BME280;24370;51.986;4.666;2023-04-29T10:21:00;102148.88;;;25.79;27.04
38616;BME280;24370;51.986;4.666;2023-04-29T10:23:28;102159.97;;;23.47;29.74
38616;BME280;24370;51.986;4.666;2023-04-29T10:25:56;102154.97;;;23.40;30.06
38616;BME280;24370;51.986;4.666;2023-04-29T10:28:24;102151.31;;;26.49;27.21
38616;BME280;24370;51.986;4.666;2023-04-29T10:30:50;102149.75;;;25.62;28.90
38616;BME280;24370;51.986;4.666;2023-04-29T10:33:16;102162.44;;;24.12;29.08
38616;BME280;24370;51.986;4.666;2023-04-29T10:35:43;102144.03;;;26.51;27.33
38616;BME280;24370;51.986;4.666;2023-04-29T10:38:22;102140.06;;;26.58;25.94
38616;BME280;24370;51.986;4.666;2023-04-29T10:40:50;102141.56;;;26.95;26.08
38616;BME280;24370;51.986;4.666;2023-04-29T10:43:22;102132.41;;;27.13;28.16
38616;BME280;24370;51.986;4.666;2023-04-29T10:45:48;102137.28;;;26.60;26.61
38616;BME280;24370;51.986;4.666;2023-04-29T10:48:14;102126.00;;;29.00;24.42
38616;BME280;24370;51.986;4.666;2023-04-29T10:50:59;102138.09;;;28.53;24.32
38616;BME280;24370;51.986;4.666;2023-04-29T10:53:26;102120.56;;;30.29;22.42
38616;BME280;24370;51.986;4.666;2023-04-29T10:56:02;102124.06;;;28.89;23.54
38616;BME280;24370;51.986;4.666;2023-04-29T11:01:01;102127.38;;;29.85;23.46
38616;BME280;24370;51.986;4.666;2023-04-29T11:03:49;102142.22;;;28.02;24.15
38616;BME280;24370;51.986;4.666;2023-04-29T11:06:21;102150.06;;;28.76;23.57
38616;BME280;24370;51.986;4.666;2023-04-29T11:08:46;102140.50;;;29.89;24.73
38616;BME280;24370;51.986;4.666;2023-04-29T11:11:14;102138.41;;;31.16;22.61
38616;BME280;24370;51.986;4.666;2023-04-29T11:13:45;102146.22;;;32.00;20.13
38616;BME280;24370;51.986;4.666;2023-04-29T11:16:11;102140.72;;;29.60;21.67
38616;BME280;24370;51.986;4.666;2023-04-29T11:19:03;102145.13;;;30.37;22.33
38616;BME280;24370;51.986;4.666;2023-04-29T11:21:29;102142.72;;;30.58;21.59
38616;BME280;24370;51.986;4.666;2023-04-29T11:23:55;102136.53;;;31.63;21.33
38616;BME280;24370;51.986;4.666;2023-04-29T11:26:23;102147.13;;;32.55;19.47
38616;BME280;24370;51.986;4.666;2023-04-29T11:28:50;102133.63;;;32.44;21.04
38616;BME280;24370;51.986;4.666;2023-04-29T11:31:16;102140.28;;;32.28;20.24
38616;BME280;24370;51.986;4.666;2023-04-29T11:33:41;102142.66;;;29.58;23.65
38616;BME280;24370;51.986;4.666;2023-04-29T11:36:08;102131.25;;;29.55;22.72
38616;BME280;24370;51.986;4.666;2023-04-29T11:38:38;102140.38;;;28.32;24.17
38616;BME280;24370;51.986;4.666;2023-04-29T11:41:04;102143.94;;;27.74;24.96
38616;BME280;24370;51.986;4.666;2023-04-29T11:43:30;102145.19;;;27.83;24.26
38616;BME280;24370;51.986;4.666;2023-04-29T11:45:56;102145.25;;;29.34;23.03
38616;BME280;24370;51.986;4.666;2023-04-29T11:48:23;102149.41;;;28.31;23.57
38616;BME280;24370;51.986;4.666;2023-04-29T11:50:51;102150.97;;;27.02;27.14
38616;BME280;24370;51.986;4.666;2023-04-29T11:53:21;102144.69;;;27.48;26.08
38616;BME280;24370;51.986;4.666;2023-04-29T11:55:48;102151.84;;;24.68;28.60
38616;BME280;24370;51.986;4.666;2023-04-29T11:58:14;102151.13;;;26.52;27.32
38616;BME280;24370;51.986;4.666;2023-04-29T12:00:43;102148.38;;;28.46;24.48
38616;BME280;24370;51.986;4.666;2023-04-29T12:03:17;102149.09;;;28.77;24.57
38616;BME280;24370;51.986;4.666;2023-04-29T12:05:53;102146.53;;;28.61;23.19
38616;BME280;24370;51.986;4.666;2023-04-29T12:08:26;102148.03;;;30.71;22.56
38616;BME280;24370;51.986;4.666;2023-04-29T12:10:54;102152.00;;;30.04;22.54
38616;BME280;24370;51.986;4.666;2023-04-29T12:13:21;102143.84;;;27.76;24.92
38616;BME280;24370;51.986;4.666;2023-04-29T12:15:49;102146.34;;;27.79;25.01
38616;BME280;24370;51.986;4.666;2023-04-29T12:18:17;102140.22;;;27.77;24.92
38616;BME280;24370;51.986;4.666;2023-04-29T12:20:46;102146.13;;;27.39;24.70
38616;BME280;24370;51.986;4.666;2023-04-29T12:23:23;102157.59;;;26.48;26.59
38616;BME280;24370;51.986;4.666;2023-04-29T12:25:57;102146.53;;;28.61;25.01
38616;BME280;24370;51.986;4.666;2023-04-29T12:28:23;102148.97;;;26.27;26.65
38616;BME280;24370;51.986;4.666;2023-04-29T12:30:51;102156.56;;;25.85;26.42
38616;BME280;24370;51.986;4.666;2023-04-29T12:33:25;102151.31;;;27.71;25.63
38616;BME280;24370;51.986;4.666;2023-04-29T12:35:52;102151.13;;;28.32;23.36
38616;BME280;24370;51.986;4.666;2023-04-29T12:38:30;102142.31;;;27.72;25.15
38616;BME280;24370;51.986;4.666;2023-04-29T12:40:59;102156.50;;;26.20;26.18
38616;BME280;24370;51.986;4.666;2023-04-29T12:43:31;102152.94;;;29.13;22.53
38616;BME280;24370;51.986;4.666;2023-04-29T12:46:02;102150.50;;;29.36;23.56
38616;BME280;24370;51.986;4.666;2023-04-29T12:48:32;102153.16;;;29.10;23.71
38616;BME280;24370;51.986;4.666;2023-04-29T12:50:57;102164.38;;;27.91;25.08
38616;BME280;24370;51.986;4.666;2023-04-29T12:53:28;102164.72;;;26.49;26.85
38616;BME280;24370;51.986;4.666;2023-04-29T12:55:54;102160.03;;;27.15;26.98
38616;BME280;24370;51.986;4.666;2023-04-29T12:58:19;102160.16;;;28.31;24.44
38616;BME280;24370;51.986;4.666;2023-04-29T13:00:45;102165.47;;;26.67;26.76
38616;BME280;24370;51.986;4.666;2023-04-29T13:03:10;102163.06;;;27.99;25.63
38616;BME280;24370;51.986;4.666;2023-04-29T13:05:36;102156.72;;;28.00;25.82